Dades meteomassalio
Diari Summary for Setembre 28, 2017 Units:  English    Metric   Both
« Previous Day
Next Day »
Diari Semanal Mensual Anual Personalitzat
  Maxima: Minima: Mijana:
Temperatura: TemperatureC °F 9.4 °F 17.2 °F
Rosada: DewpointC °F 8.1 °F 12.1 °F
Humitat: Humidity % 48 % 73 %
Velocitat del vent: WindSpeedKMH mph 0.0 mph 5.3 mph
Racha vent: WindSpeedGustKMH mph - -
Vent:- - SSE
Pressio: PressurehPa in 1023.2 in -
Pluja: 0.0 in    
Historical Graphs
 
 
Tabular Data for Setembre 28, 2017
Time Temperature Dew Point Pressure Wind Wind Speed Wind Gust Humidity Rainfall Rate (Hourly) solar Conditions
TemperatureC °F DewpointC °F PressurehPa in Calm     Humidity % HourlyPrecipMM in SolarRadiationWatts/m^2 W/m2 Conditions
00:02 15.6 °F 11.7 °F 1023.9 in Calm     78 % 0.0 in 0.0 W/m2 CLR
00:07 15.0 °F 11.4 °F 1023.9 in Calm     79 % 0.0 in 0.0 W/m2 CLR
00:12 15.0 °F 11.4 °F 1024.3 in Calm     79 % 0.0 in 0.0 W/m2 CLR
00:17 15.0 °F 11.4 °F 1024.3 in Calm     79 % 0.0 in 0.0 W/m2 CLR
00:22 15.0 °F 11.2 °F 1023.9 in Calm     78 % 0.0 in 0.0 W/m2 CLR
00:27 14.4 °F 10.7 °F 1023.9 in Calm     78 % 0.0 in 0.0 W/m2 CLR
00:32 14.4 °F 10.8 °F 1024.3 in Calm     79 % 0.0 in 0.0 W/m2 CLR
00:37 13.9 °F 10.7 °F 1024.3 in Calm     81 % 0.0 in 0.0 W/m2 CLR
00:42 13.9 °F 10.7 °F 1024.3 in Calm     81 % 0.0 in 0.0 W/m2 CLR
00:47 13.9 °F 10.5 °F 1024.3 in Calm     80 % 0.0 in 0.0 W/m2 CLR
00:52 13.3 °F 9.9 °F 1024.3 in Calm     80 % 0.0 in 0.0 W/m2 CLR
00:57 13.3 °F 10.2 °F 1024.3 in Calm     81 % 0.0 in 0.0 W/m2 CLR
01:02 13.3 °F 10.2 °F 1024.3 in Calm     81 % 0.0 in 0.0 W/m2 CLR
01:07 13.3 °F 10.2 °F 1024.3 in Calm     81 % 0.0 in 0.0 W/m2 CLR
01:12 13.3 °F 10.3 °F 1024.3 in Calm     82 % 0.0 in 0.0 W/m2 CLR
01:17 13.3 °F 10.3 °F 1024.3 in Calm     82 % 0.0 in 0.0 W/m2 CLR
01:22 13.3 °F 10.5 °F 1024.3 in Calm     83 % 0.0 in 0.0 W/m2 CLR
01:27 12.8 °F 10.2 °F 1024.3 in Calm     84 % 0.0 in 0.0 W/m2 CLR
01:32 12.8 °F 10.2 °F 1024.3 in Calm     84 % 0.0 in 0.0 W/m2 CLR
01:37 12.8 °F 10.2 °F 1024.3 in Calm     84 % 0.0 in 0.0 W/m2 CLR
01:42 12.8 °F 10.2 °F 1024.3 in Calm     84 % 0.0 in 0.0 W/m2 CLR
01:47 12.2 °F 9.8 °F 1024.3 in Calm     85 % 0.0 in 0.0 W/m2 CLR
01:52 12.2 °F 9.9 °F 1024.3 in Calm     86 % 0.0 in 0.0 W/m2 CLR
01:57 12.2 °F 9.9 °F 1024.3 in Calm     86 % 0.0 in 0.0 W/m2 CLR
02:02 12.2 °F 9.8 °F 1024.3 in Calm     85 % 0.0 in 0.0 W/m2 CLR
02:07 12.2 °F 9.8 °F 1024.3 in Calm     85 % 0.0 in 0.0 W/m2 CLR
02:12 12.2 °F 9.8 °F 1024.6 in Calm     85 % 0.0 in 0.0 W/m2 CLR
02:17 11.7 °F 9.2 °F 1024.6 in Calm     85 % 0.0 in 0.0 W/m2 CLR
02:22 11.7 °F 9.1 °F 1024.6 in Calm     84 % 0.0 in 0.0 W/m2 CLR
02:27 11.7 °F 9.2 °F 1024.6 in Calm     85 % 0.0 in 0.0 W/m2 CLR
02:32 11.7 °F 9.4 °F 1024.6 in Calm     86 % 0.0 in 0.0 W/m2 CLR
02:37 11.7 °F 9.4 °F 1024.6 in Calm     86 % 0.0 in 0.0 W/m2 CLR
02:42 11.7 °F 9.6 °F 1024.6 in Calm     87 % 0.0 in 0.0 W/m2 CLR
02:47 12.2 °F 9.9 °F 1024.6 in Calm     86 % 0.0 in 0.0 W/m2 CLR
02:52 12.2 °F 10.1 °F 1024.6 in Calm     87 % 0.0 in 0.0 W/m2 CLR
02:57 12.2 °F 10.1 °F 1024.6 in Calm     87 % 0.0 in 0.0 W/m2 CLR
03:02 11.7 °F 9.6 °F 1024.6 in Calm     87 % 0.0 in 0.0 W/m2 CLR
03:07 11.7 °F 9.6 °F 1024.6 in Calm     87 % 0.0 in 0.0 W/m2 CLR
03:12 11.7 °F 9.6 °F 1024.6 in Calm     87 % 0.0 in 0.0 W/m2 CLR
03:17 11.7 °F 9.6 °F 1024.6 in Calm     87 % 0.0 in 0.0 W/m2 CLR
03:22 11.1 °F 9.1 °F 1024.6 in Calm     87 % 0.0 in 0.0 W/m2 CLR
03:27 11.1 °F 9.1 °F 1024.9 in Calm     87 % 0.0 in 0.0 W/m2 CLR
03:32 11.1 °F 9.1 °F 1024.6 in Calm     87 % 0.0 in 0.0 W/m2 CLR
03:37 11.1 °F 9.2 °F 1024.9 in Calm     88 % 0.0 in 0.0 W/m2 CLR
03:42 11.1 °F 9.2 °F 1024.6 in Calm     88 % 0.0 in 0.0 W/m2 CLR
03:47 11.1 °F 9.4 °F 1024.6 in Calm     89 % 0.0 in 0.0 W/m2 CLR
03:52 11.1 °F 9.4 °F 1024.6 in Calm     89 % 0.0 in 0.0 W/m2 CLR
03:57 11.1 °F 9.2 °F 1024.6 in Calm     88 % 0.0 in 0.0 W/m2 CLR
04:02 11.1 °F 9.2 °F 1024.6 in Calm     88 % 0.0 in 0.0 W/m2 CLR
04:07 11.1 °F 9.2 °F 1024.6 in Calm     88 % 0.0 in 0.0 W/m2 CLR
04:12 10.6 °F 8.8 °F 1024.6 in Calm     89 % 0.0 in 0.0 W/m2 CLR
04:17 10.6 °F 8.7 °F 1024.6 in Calm     88 % 0.0 in 0.0 W/m2 CLR
04:22 10.6 °F 8.7 °F 1024.6 in Calm     88 % 0.0 in 0.0 W/m2 CLR
04:27 10.6 °F 8.7 °F 1024.6 in Calm     88 % 0.0 in 0.0 W/m2 CLR
04:32 10.6 °F 8.8 °F 1024.6 in Calm     89 % 0.0 in 0.0 W/m2 CLR
04:37 10.6 °F 8.8 °F 1024.6 in Calm     89 % 0.0 in 0.0 W/m2 CLR
04:42 10.6 °F 8.8 °F 1024.6 in Calm     89 % 0.0 in 0.0 W/m2 CLR
04:47 10.6 °F 8.8 °F 1024.6 in Calm     89 % 0.0 in 0.0 W/m2 CLR
04:52 10.6 °F 8.8 °F 1024.6 in Calm     89 % 0.0 in 0.0 W/m2 CLR
04:57 10.6 °F 8.8 °F 1024.6 in Calm     89 % 0.0 in 0.0 W/m2 CLR
05:02 10.6 °F 8.8 °F 1024.6 in Calm     89 % 0.0 in 0.0 W/m2 CLR
05:07 10.6 °F 9.0 °F 1024.6 in Calm     90 % 0.0 in 0.0 W/m2 CLR
05:12 10.6 °F 8.8 °F 1024.6 in Calm     89 % 0.0 in 0.0 W/m2 CLR
05:17 10.6 °F 9.0 °F 1024.6 in Calm     90 % 0.0 in 0.0 W/m2 CLR
05:23 10.0 °F 8.4 °F 1024.6 in Calm     90 % 0.0 in 0.0 W/m2 CLR
05:28 10.0 °F 8.4 °F 1024.6 in Calm     90 % 0.0 in 0.0 W/m2 CLR
05:33 10.6 °F 9.0 °F 1024.6 in Calm     90 % 0.0 in 0.0 W/m2 CLR
05:38 10.0 °F 8.4 °F 1024.6 in Calm     90 % 0.0 in 0.0 W/m2 CLR
05:43 10.0 °F 8.4 °F 1024.6 in Calm     90 % 0.0 in 0.0 W/m2 CLR
05:48 10.0 °F 8.4 °F 1024.6 in Calm     90 % 0.0 in 0.0 W/m2 CLR
05:53 10.0 °F 8.4 °F 1024.6 in Calm     90 % 0.0 in 0.0 W/m2 CLR
05:58 10.0 °F 8.4 °F 1024.6 in Calm     90 % 0.0 in 0.0 W/m2 CLR
06:03 10.0 °F 8.4 °F 1024.6 in Calm     90 % 0.0 in 0.0 W/m2 CLR
06:08 10.0 °F 8.4 °F 1024.9 in Calm     90 % 0.0 in 0.0 W/m2 CLR
06:13 10.0 °F 8.4 °F 1024.9 in Calm     90 % 0.0 in 0.0 W/m2 CLR
06:18 10.0 °F 8.4 °F 1024.9 in Calm     90 % 0.0 in 0.0 W/m2 CLR
06:23 10.0 °F 8.4 °F 1024.9 in Calm     90 % 0.0 in 0.0 W/m2 CLR
06:28 10.0 °F 8.6 °F 1024.9 in Calm     91 % 0.0 in 0.0 W/m2 CLR
06:33 10.0 °F 8.6 °F 1024.9 in Calm     91 % 0.0 in 0.0 W/m2 CLR
06:38 10.0 °F 8.6 °F 1024.9 in Calm     91 % 0.0 in 0.0 W/m2 CLR
06:43 10.0 °F 8.6 °F 1024.9 in Calm     91 % 0.0 in 0.0 W/m2 CLR
06:48 10.0 °F 8.6 °F 1024.9 in Calm     91 % 0.0 in 0.0 W/m2 CLR
06:49 10.0 °F 8.6 °F 1024.9 in Calm     91 % 0.0 in 0.0 W/m2 CLR
06:54 10.0 °F 8.6 °F 1024.9 in Calm     91 % 0.0 in 0.0 W/m2 CLR
06:59 10.0 °F 8.6 °F 1025.3 in Calm     91 % 0.0 in 0.0 W/m2 CLR
07:04 10.0 °F 8.6 °F 1025.3 in Calm     91 % 0.0 in 0.0 W/m2 CLR
07:09 10.0 °F 8.6 °F 1025.3 in Calm     91 % 0.0 in 0.0 W/m2 CLR
07:14 9.4 °F 8.1 °F 1025.3 in Calm     91 % 0.0 in 0.0 W/m2 CLR
07:19 9.4 °F 8.1 °F 1025.3 in Calm     91 % 0.0 in 0.0 W/m2 CLR
07:24 10.0 °F 8.6 °F 1025.3 in Calm     91 % 0.0 in 0.0 W/m2 CLR
07:29 10.0 °F 8.6 °F 1025.6 in Calm     91 % 0.0 in 0.0 W/m2 CLR
07:34 9.4 °F 8.1 °F 1025.3 in Calm     91 % 0.0 in 0.0 W/m2 CLR
07:39 9.4 °F 8.1 °F 1025.3 in Calm     91 % 0.0 in 0.0 W/m2 CLR
07:44 9.4 °F 8.1 °F 1025.6 in Calm     91 % 0.0 in 0.0 W/m2 OVC
07:49 9.4 °F 8.1 °F 1025.6 in Calm     91 % 0.0 in 0.0 W/m2 OVC
07:54 9.4 °F 8.1 °F 1025.6 in Calm     91 % 0.0 in 5.0 W/m2 OVC
07:59 9.4 °F 8.1 °F 1025.6 in Calm     91 % 0.0 in 7.0 W/m2 BKN
08:04 9.4 °F 8.1 °F 1025.6 in Calm     91 % 0.0 in 11.0 W/m2 BKN
08:09 9.4 °F 8.1 °F 1025.6 in Calm     91 % 0.0 in 12.0 W/m2 BKN
08:14 9.4 °F 8.1 °F 1026.0 in Calm     91 % 0.0 in 16.0 W/m2 BKN
08:19 9.4 °F 8.1 °F 1026.0 in Calm     91 % 0.0 in 23.0 W/m2 BKN
08:24 9.4 °F 8.1 °F 1026.0 in Calm     91 % 0.0 in 32.0 W/m2 BKN
08:29 9.4 °F 8.2 °F 1026.0 in Calm     92 % 0.0 in 42.0 W/m2 BKN
08:34 9.4 °F 8.2 °F 1026.0 in Calm     92 % 0.0 in 51.0 W/m2 SCT
08:39 10.0 °F 8.8 °F 1026.0 in Calm     92 % 0.0 in 62.0 W/m2 SCT
08:45 10.6 °F 9.3 °F 1026.0 in Calm     92 % 0.0 in 70.0 W/m2 FEW
08:50 10.6 °F 9.2 °F 1026.0 in Calm     91 % 0.0 in 77.0 W/m2 FEW
08:55 10.6 °F 9.2 °F 1026.0 in Calm     91 % 0.0 in 95.0 W/m2 FEW
09:00 11.1 °F 9.6 °F 1026.0 in Calm     90 % 0.0 in 98.0 W/m2 CLR
09:05 11.1 °F 9.6 °F 1026.0 in Calm     90 % 0.0 in 90.0 W/m2 CLR
09:10 11.7 °F 10.1 °F 1026.0 in Calm     90 % 0.0 in 148.0 W/m2 CLR
09:15 11.7 °F 10.1 °F 1026.3 in Calm     90 % 0.0 in 165.0 W/m2 CLR
09:20 12.2 °F 10.4 °F 1026.3 in Calm     89 % 0.0 in 179.0 W/m2 CLR
09:25 12.2 °F 10.3 °F 1026.3 in Calm     88 % 0.0 in 199.0 W/m2 CLR
09:30 12.2 °F 10.1 °F 1026.3 in Calm     87 % 0.0 in 216.0 W/m2 CLR
09:35 12.8 °F 10.7 °F 1026.3 in Calm     87 % 0.0 in 232.0 W/m2 CLR
09:40 13.3 °F 11.1 °F 1026.6 in Calm     86 % 0.0 in 248.0 W/m2 CLR
09:45 13.9 °F 11.4 °F 1026.6 in Calm     85 % 0.0 in 269.0 W/m2 CLR
09:50 14.4 °F 11.9 °F 1026.6 in Calm     85 % 0.0 in 285.0 W/m2 CLR
09:55 15.0 °F 12.5 °F 1026.6 in Calm     85 % 0.0 in 299.0 W/m2 CLR
10:00 15.0 °F 12.1 °F 1026.6 in Calm     83 % 0.0 in 315.0 W/m2 CLR
10:05 15.0 °F 11.8 °F 1026.6 in Calm     81 % 0.0 in 329.0 W/m2 CLR
10:10 15.6 °F 12.3 °F 1026.6 in Calm     81 % 0.0 in 345.0 W/m2 CLR
10:15 16.1 °F 12.7 °F 1026.6 in Calm     80 % 0.0 in 359.0 W/m2 CLR
10:20 16.7 °F 13.2 °F 1026.6 in Calm     80 % 0.0 in 373.0 W/m2 CLR
10:25 17.2 °F 13.7 °F 1026.6 in Calm     80 % 0.0 in 385.0 W/m2 CLR
10:30 17.2 °F 13.7 °F 1026.6 in Calm     80 % 0.0 in 403.0 W/m2 CLR
10:35 17.8 °F 14.1 °F 1026.6 in Calm     79 % 0.0 in 420.0 W/m2 CLR
10:37 17.8 °F 14.1 °F 1026.6 in Calm     79 % 0.0 in 424.0 W/m2 CLR
10:42 17.8 °F 14.1 °F 1026.6 in Calm     79 % 0.0 in 432.0 W/m2 CLR
10:47 18.3 °F 14.4 °F 1026.6 in Calm     78 % 0.0 in 448.0 W/m2 CLR
10:52 18.3 °F 14.2 °F 1026.6 in Calm     77 % 0.0 in 459.0 W/m2 CLR
10:57 18.3 °F 14.0 °F 1026.6 in Calm     76 % 0.0 in 473.0 W/m2 CLR
11:02 18.9 °F 14.6 °F 1026.6 in Calm     76 % 0.0 in 482.0 W/m2 CLR
11:07 18.9 °F 14.3 °F 1026.6 in Calm     75 % 0.0 in 492.0 W/m2 CLR
11:12 19.4 °F 14.7 °F 1026.6 in Calm     74 % 0.0 in 501.0 W/m2 CLR
11:17 19.4 °F 14.5 °F 1026.6 in Calm     73 % 0.0 in 519.0 W/m2 CLR
11:22 20.0 °F 15.0 °F 1026.6 in Calm     73 % 0.0 in 536.0 W/m2 CLR
11:27 20.0 °F 14.8 °F 1026.3 in Calm     72 % 0.0 in 547.0 W/m2 CLR
11:32 20.0 °F 14.6 °F 1026.3 in Calm     71 % 0.0 in 554.0 W/m2 CLR
11:37 20.6 °F 14.9 °F 1026.3 in Calm     70 % 0.0 in 555.0 W/m2 CLR
11:42 20.6 °F 14.7 °F 1026.3 in North 7.4 mph 7.4 mph 69 % 0.0 in 570.0 W/m2 CLR
11:47 21.1 °F 15.2 °F 1026.3 in NNW 13.0 mph 13.0 mph 69 % 0.0 in 582.0 W/m2 CLR
11:52 21.1 °F 15.7 °F 1026.3 in Calm     71 % 0.0 in 592.0 W/m2 CLR
11:57 21.7 °F 15.7 °F 1026.3 in WNW 5.6 mph 5.6 mph 69 % 0.0 in 605.0 W/m2 CLR
12:02 21.7 °F 15.7 °F 1026.3 in NW 7.4 mph 7.4 mph 69 % 0.0 in 603.0 W/m2 CLR
12:07 21.7 °F 15.7 °F 1026.3 in NNW 5.6 mph 5.6 mph 69 % 0.0 in 622.0 W/m2 CLR
12:08 21.7 °F 15.7 °F 1026.3 in NNW 11.1 mph 11.1 mph 69 % 0.0 in 626.0 W/m2 CLR
12:13 22.2 °F 16.3 °F 1026.3 in NNW 6.4 mph 6.4 mph 69 % 0.0 in 628.0 W/m2 CLR
12:18 22.2 °F 15.8 °F 1026.3 in NNW 9.7 mph 9.7 mph 67 % 0.0 in 640.0 W/m2 CLR
12:23 22.2 °F 15.6 °F 1026.0 in North 5.6 mph 5.6 mph 66 % 0.0 in 645.0 W/m2 CLR
12:28 22.8 °F 16.1 °F 1026.0 in Calm     66 % 0.0 in 626.0 W/m2 CLR
12:33 22.8 °F 16.1 °F 1026.0 in West 1.9 mph 1.9 mph 66 % 0.0 in 643.0 W/m2 CLR
12:38 22.8 °F 15.8 °F 1026.0 in WNW 9.3 mph 9.3 mph 65 % 0.0 in 649.0 W/m2 CLR
12:43 22.8 °F 15.8 °F 1026.0 in NW 5.6 mph   65 % 0.0 in 666.0 W/m2 CLR
12:48 23.3 °F 15.9 °F 1026.0 in WSW 11.1 mph 11.1 mph 63 % 0.0 in 677.0 W/m2 CLR
12:53 23.9 °F 16.7 °F 1025.6 in NNW 6.4 mph 6.4 mph 64 % 0.0 in 691.0 W/m2 CLR
12:58 23.9 °F 16.4 °F 1025.6 in NNW 13.0 mph 13.0 mph 63 % 0.0 in 693.0 W/m2 CLR
13:03 23.9 °F 16.2 °F 1025.6 in NNW 12.9 mph 12.9 mph 62 % 0.0 in 691.0 W/m2 CLR
13:08 23.9 °F 16.2 °F 1025.6 in NNE 7.4 mph 7.4 mph 62 % 0.0 in 689.0 W/m2 CLR
13:13 24.4 °F 16.4 °F 1025.6 in Calm     61 % 0.0 in 666.0 W/m2 CLR
13:18 24.4 °F 16.7 °F 1025.3 in Calm     62 % 0.0 in 712.0 W/m2 CLR
13:23 24.4 °F 16.4 °F 1025.3 in NW 8.0 mph 8.0 mph 61 % 0.0 in 657.0 W/m2 CLR
13:28 24.4 °F 16.4 °F 1025.3 in WNW 5.6 mph 5.6 mph 61 % 0.0 in 719.0 W/m2 CLR
13:33 24.4 °F 15.9 °F 1025.3 in WNW 14.8 mph 14.8 mph 59 % 0.0 in 715.0 W/m2 CLR
13:38 25.0 °F 16.4 °F 1025.3 in NNW 14.5 mph 14.5 mph 59 % 0.0 in 721.0 W/m2 CLR
13:43 25.0 °F 16.4 °F 1024.9 in NNW 9.3 mph 9.3 mph 59 % 0.0 in 719.0 W/m2 CLR
13:48 25.6 °F 16.4 °F 1024.9 in NNW 5.6 mph 5.6 mph 57 % 0.0 in 722.0 W/m2 CLR
13:53 25.6 °F 16.1 °F 1024.9 in NW 12.9 mph 12.9 mph 56 % 0.0 in 721.0 W/m2 CLR
13:58 25.6 °F 16.4 °F 1024.9 in NNW 13.0 mph 13.0 mph 57 % 0.0 in 724.0 W/m2 CLR
14:03 25.6 °F 15.8 °F 1024.9 in NW 16.7 mph 16.7 mph 55 % 0.0 in 726.0 W/m2 CLR
14:08 25.6 °F 15.8 °F 1024.6 in West 7.4 mph   55 % 0.0 in 707.0 W/m2 CLR
14:13 25.6 °F 15.8 °F 1024.6 in WNW 18.5 mph 18.5 mph 55 % 0.0 in 726.0 W/m2 CLR
14:18 25.6 °F 15.8 °F 1024.6 in North 16.7 mph 16.7 mph 55 % 0.0 in 717.0 W/m2 CLR
14:23 25.6 °F 15.6 °F 1024.6 in North 18.5 mph 18.5 mph 54 % 0.0 in 724.0 W/m2 CLR
14:28 26.7 °F 16.0 °F 1024.6 in NNW 16.7 mph 16.7 mph 52 % 0.0 in 710.0 W/m2 CLR
14:33 26.7 °F 15.7 °F 1024.3 in NE 14.8 mph 14.8 mph 51 % 0.0 in 700.0 W/m2 CLR
14:38 27.2 °F 16.2 °F 1024.3 in NNW 8.0 mph 8.0 mph 51 % 0.0 in 694.0 W/m2 CLR
14:44 27.2 °F 16.2 °F 1024.3 in NW 7.4 mph   51 % 0.0 in 714.0 W/m2 CLR
14:49 27.2 °F 16.2 °F 1024.3 in Calm     51 % 0.0 in 606.0 W/m2 CLR
14:54 26.7 °F 15.7 °F 1024.3 in NNE 13.0 mph 13.0 mph 51 % 0.0 in 661.0 W/m2 CLR
14:59 27.2 °F 15.9 °F 1024.3 in North 14.8 mph 14.8 mph 50 % 0.0 in 631.0 W/m2 CLR
15:04 27.2 °F 15.9 °F 1023.9 in Calm     50 % 0.0 in 592.0 W/m2 CLR
15:09 26.7 °F 15.4 °F 1023.9 in NNW 14.8 mph 14.8 mph 50 % 0.0 in 649.0 W/m2 CLR
15:14 26.7 °F 15.1 °F 1023.9 in North 11.1 mph 11.1 mph 49 % 0.0 in 631.0 W/m2 CLR
15:19 26.7 °F 14.7 °F 1023.9 in West 7.4 mph 7.4 mph 48 % 0.0 in 543.0 W/m2 CLR
15:24 26.7 °F 14.7 °F 1023.9 in WNW 9.3 mph 9.3 mph 48 % 0.0 in 592.0 W/m2 CLR
15:29 27.2 °F 15.3 °F 1023.9 in NE 4.8 mph 4.8 mph 48 % 0.0 in 628.0 W/m2 CLR
15:34 27.2 °F 15.6 °F 1023.9 in Calm     49 % 0.0 in 603.0 W/m2 CLR
15:39 26.7 °F 15.1 °F 1023.9 in North 18.5 mph 18.5 mph 49 % 0.0 in 601.0 W/m2 CLR
15:44 26.7 °F 15.1 °F 1023.6 in NNE 18.5 mph 18.5 mph 49 % 0.0 in 568.0 W/m2 CLR
15:49 26.7 °F 15.7 °F 1023.6 in North 20.4 mph 20.4 mph 51 % 0.0 in 605.0 W/m2 CLR
15:54 26.7 °F 15.7 °F 1023.6 in NNE 18.5 mph 18.5 mph 51 % 0.0 in 629.0 W/m2 CLR
15:59 26.7 °F 15.7 °F 1023.6 in NE 20.4 mph 20.4 mph 51 % 0.0 in 578.0 W/m2 CLR
16:04 26.7 °F 15.4 °F 1023.6 in NE 18.5 mph 18.5 mph 50 % 0.0 in 543.0 W/m2 CLR
16:09 26.7 °F 15.7 °F 1023.6 in North 18.5 mph 18.5 mph 51 % 0.0 in 529.0 W/m2 CLR
16:14 26.7 °F 16.0 °F 1023.6 in North 24.1 mph 24.1 mph 52 % 0.0 in 548.0 W/m2 CLR
16:19 26.7 °F 16.0 °F 1023.6 in North 19.3 mph 19.3 mph 52 % 0.0 in 548.0 W/m2 CLR
16:24 26.7 °F 16.3 °F 1023.6 in NNE 18.5 mph 18.5 mph 53 % 0.0 in 559.0 W/m2 CLR
16:29 26.7 °F 16.3 °F 1023.6 in North 24.1 mph 24.1 mph 53 % 0.0 in 531.0 W/m2 CLR
16:34 26.7 °F 16.3 °F 1023.6 in North 18.5 mph 18.5 mph 53 % 0.0 in 508.0 W/m2 CLR
16:39 26.7 °F 16.3 °F 1023.6 in NNE 5.6 mph 5.6 mph 53 % 0.0 in 439.0 W/m2 CLR
16:44 26.7 °F 16.3 °F 1023.6 in NNE 25.9 mph 25.9 mph 53 % 0.0 in 120.0 W/m2 CLR
16:49 26.7 °F 16.6 °F 1023.6 in NE 22.2 mph 22.2 mph 54 % 0.0 in 471.0 W/m2 CLR
16:54 26.7 °F 16.6 °F 1023.6 in NE 18.5 mph 18.5 mph 54 % 0.0 in 462.0 W/m2 CLR
16:59 26.7 °F 16.6 °F 1023.6 in NNW 18.5 mph 18.5 mph 54 % 0.0 in 445.0 W/m2 CLR
17:04 26.7 °F 16.6 °F 1023.2 in NNE 14.8 mph 14.8 mph 54 % 0.0 in 429.0 W/m2 CLR
17:09 26.7 °F 16.6 °F 1023.6 in NE 16.7 mph 16.7 mph 54 % 0.0 in 417.0 W/m2 CLR
17:14 26.1 °F 15.8 °F 1023.6 in NNE 18.5 mph 18.5 mph 53 % 0.0 in 403.0 W/m2 CLR
17:19 26.1 °F 16.1 °F 1023.6 in NNE 14.5 mph 14.5 mph 54 % 0.0 in 387.0 W/m2 CLR
17:24 26.1 °F 16.4 °F 1023.6 in NE 16.7 mph 16.7 mph 55 % 0.0 in 376.0 W/m2 CLR
17:29 26.1 °F 16.4 °F 1023.6 in NNE 12.9 mph 12.9 mph 55 % 0.0 in 357.0 W/m2 CLR
17:34 25.6 °F 15.8 °F 1023.6 in North 20.4 mph 20.4 mph 55 % 0.0 in 341.0 W/m2 CLR
17:39 25.6 °F 15.8 °F 1023.6 in NE 20.4 mph 20.4 mph 55 % 0.0 in 325.0 W/m2 CLR
17:44 25.6 °F 16.1 °F 1023.6 in NNE 14.8 mph 14.8 mph 56 % 0.0 in 309.0 W/m2 CLR
17:49 25.6 °F 16.1 °F 1023.6 in NNE 24.1 mph 24.1 mph 56 % 0.0 in 297.0 W/m2 CLR
17:54 25.6 °F 16.1 °F 1023.6 in NE 18.5 mph 18.5 mph 56 % 0.0 in 283.0 W/m2 CLR
17:59 25.0 °F 15.6 °F 1023.6 in NNE 20.4 mph 20.4 mph 56 % 0.0 in 267.0 W/m2 CLR
18:04 25.0 °F 15.9 °F 1023.6 in NE 22.2 mph 22.2 mph 57 % 0.0 in 248.0 W/m2 CLR
18:09 25.0 °F 15.9 °F 1023.6 in NNE 18.5 mph 18.5 mph 57 % 0.0 in 237.0 W/m2 CLR
18:14 25.0 °F 15.9 °F 1023.6 in NE 18.5 mph 18.5 mph 57 % 0.0 in 218.0 W/m2 CLR
18:19 25.0 °F 16.2 °F 1023.6 in NE 22.2 mph 22.2 mph 58 % 0.0 in 197.0 W/m2 CLR
18:24 24.4 °F 15.7 °F 1023.6 in ENE 17.7 mph 17.7 mph 58 % 0.0 in 179.0 W/m2 CLR
18:29 24.4 °F 15.7 °F 1023.6 in ENE 22.2 mph 22.2 mph 58 % 0.0 in 163.0 W/m2 CLR
18:30 24.4 °F 15.7 °F 1023.6 in ENE 22.2 mph 22.2 mph 58 % 0.0 in 163.0 W/m2 CLR
18:35 24.4 °F 15.7 °F 1023.6 in NE 18.5 mph 18.5 mph 58 % 0.0 in 144.0 W/m2 CLR
18:40 24.4 °F 15.7 °F 1023.6 in ENE 18.5 mph 18.5 mph 58 % 0.0 in 128.0 W/m2 CLR
18:45 23.9 °F 15.4 °F 1023.6 in NE 18.5 mph 18.5 mph 59 % 0.0 in 113.0 W/m2 CLR
18:50 23.9 °F 15.4 °F 1023.6 in East 24.1 mph 24.1 mph 59 % 0.0 in 98.0 W/m2 CLR
18:55 23.9 °F 15.4 °F 1023.6 in ENE 22.2 mph 22.2 mph 59 % 0.0 in 83.0 W/m2 FEW
19:00 23.9 °F 15.4 °F 1023.6 in ENE 20.9 mph 20.9 mph 59 % 0.0 in 63.0 W/m2 FEW
19:05 23.3 °F 15.1 °F 1023.6 in ENE 18.5 mph 18.5 mph 60 % 0.0 in 56.0 W/m2 SCT
19:10 23.3 °F 15.1 °F 1023.9 in East 14.8 mph 14.8 mph 60 % 0.0 in 46.0 W/m2 SCT
19:15 23.3 °F 15.1 °F 1023.9 in East 16.7 mph 16.7 mph 60 % 0.0 in 33.0 W/m2 BKN
19:20 22.8 °F 14.9 °F 1023.9 in ENE 18.5 mph 18.5 mph 61 % 0.0 in 25.0 W/m2 BKN
19:25 22.2 °F 14.6 °F 1023.9 in East 20.4 mph 20.4 mph 62 % 0.0 in 18.0 W/m2 BKN
19:30 22.2 °F 14.6 °F 1023.9 in East 16.7 mph 16.7 mph 62 % 0.0 in 14.0 W/m2 BKN
19:35 21.7 °F 14.1 °F 1023.9 in ENE 16.7 mph 16.7 mph 62 % 0.0 in 11.0 W/m2 BKN
19:40 21.1 °F 13.8 °F 1023.9 in ENE 8.0 mph 8.0 mph 63 % 0.0 in 7.0 W/m2 BKN
19:45 21.1 °F 13.8 °F 1023.9 in NE 7.4 mph 7.4 mph 63 % 0.0 in 5.0 W/m2 OVC
19:50 21.1 °F 14.1 °F 1023.9 in ENE 14.8 mph 14.8 mph 64 % 0.0 in 0.0 W/m2 OVC
19:55 20.6 °F 13.5 °F 1023.9 in East 11.3 mph 11.3 mph 64 % 0.0 in 0.0 W/m2 OVC
20:00 20.6 °F 13.7 °F 1023.9 in East 7.4 mph 7.4 mph 65 % 0.0 in 0.0 W/m2 CLR
20:05 20.0 °F 13.2 °F 1024.3 in NE 8.0 mph 8.0 mph 65 % 0.0 in 0.0 W/m2 CLR
20:10 20.0 °F 13.2 °F 1024.3 in ENE 6.4 mph 6.4 mph 65 % 0.0 in 0.0 W/m2 CLR
20:15 19.4 °F 12.9 °F 1024.3 in ENE 7.4 mph 7.4 mph 66 % 0.0 in 0.0 W/m2 CLR
20:20 18.9 °F 12.4 °F 1024.3 in ENE 9.3 mph 9.3 mph 66 % 0.0 in 0.0 W/m2 CLR
20:25 18.3 °F 11.9 °F 1024.3 in ENE 8.0 mph 8.0 mph 66 % 0.0 in 0.0 W/m2 CLR
20:30 18.3 °F 12.1 °F 1024.3 in ENE 7.4 mph 7.4 mph 67 % 0.0 in 0.0 W/m2 CLR
20:35 17.8 °F 11.6 °F 1024.3 in ENE 7.4 mph 7.4 mph 67 % 0.0 in 0.0 W/m2 CLR
20:36 17.8 °F 11.6 °F 1024.3 in ENE 8.0 mph 8.0 mph 67 % 0.0 in 0.0 W/m2 CLR
20:41 17.8 °F 11.6 °F 1024.3 in NE 5.6 mph 5.6 mph 67 % 0.0 in 0.0 W/m2 CLR
20:46 17.8 °F 11.8 °F 1024.3 in ENE 11.1 mph 11.1 mph 68 % 0.0 in 0.0 W/m2 CLR
20:51 17.2 °F 11.3 °F 1024.3 in ENE 11.1 mph 11.1 mph 68 % 0.0 in 0.0 W/m2 CLR
20:56 17.2 °F 11.3 °F 1024.3 in ENE 9.3 mph 9.3 mph 68 % 0.0 in 0.0 W/m2 CLR
21:01 17.2 °F 11.3 °F 1024.6 in NE 13.0 mph 13.0 mph 68 % 0.0 in 0.0 W/m2 CLR
21:06 17.2 °F 11.5 °F 1024.6 in NE 7.4 mph 7.4 mph 69 % 0.0 in 0.0 W/m2 CLR
21:11 17.2 °F 11.5 °F 1024.6 in ENE 7.4 mph 7.4 mph 69 % 0.0 in 0.0 W/m2 CLR
21:16 16.7 °F 10.9 °F 1024.6 in ENE 7.4 mph 7.4 mph 69 % 0.0 in 0.0 W/m2 CLR
21:21 16.7 °F 11.2 °F 1024.6 in Calm     70 % 0.0 in 0.0 W/m2 CLR
21:26 16.7 °F 11.2 °F 1024.6 in ENE 6.4 mph 6.4 mph 70 % 0.0 in 0.0 W/m2 CLR
21:31 16.7 °F 11.2 °F 1024.6 in Calm     70 % 0.0 in 0.0 W/m2 CLR
21:36 16.1 °F 10.6 °F 1024.6 in Calm     70 % 0.0 in 0.0 W/m2 CLR
21:41 16.1 °F 10.6 °F 1024.6 in Calm     70 % 0.0 in 0.0 W/m2 CLR
21:46 16.1 °F 10.8 °F 1024.6 in Calm     71 % 0.0 in 0.0 W/m2 CLR
21:51 15.6 °F 10.3 °F 1024.6 in Calm     71 % 0.0 in 0.0 W/m2 CLR
21:56 15.6 °F 10.3 °F 1024.9 in Calm     71 % 0.0 in 0.0 W/m2 CLR
22:01 15.0 °F 9.8 °F 1024.9 in Calm     71 % 0.0 in 0.0 W/m2 CLR
22:06 15.0 °F 10.0 °F 1024.9 in Calm     72 % 0.0 in 0.0 W/m2 CLR
22:11 15.0 °F 10.2 °F 1024.9 in Calm     73 % 0.0 in 0.0 W/m2 CLR
22:16 15.0 °F 10.2 °F 1024.9 in Calm     73 % 0.0 in 0.0 W/m2 CLR
22:21 14.4 °F 9.7 °F 1024.9 in Calm     73 % 0.0 in 0.0 W/m2 CLR
22:26 14.4 °F 9.7 °F 1024.9 in Calm     73 % 0.0 in 0.0 W/m2 CLR
22:31 14.4 °F 9.7 °F 1024.9 in Calm     73 % 0.0 in 0.0 W/m2 CLR
22:32 14.4 °F 9.7 °F 1024.9 in Calm     73 % 0.0 in 0.0 W/m2 CLR
22:37 14.4 °F 9.7 °F 1024.9 in Calm     73 % 0.0 in 0.0 W/m2 CLR
22:42 14.4 °F 9.7 °F 1024.9 in Calm     73 % 0.0 in 0.0 W/m2 CLR
22:47 13.9 °F 9.1 °F 1024.9 in Calm     73 % 0.0 in 0.0 W/m2 CLR
22:52 13.9 °F 9.1 °F 1024.9 in Calm     73 % 0.0 in 0.0 W/m2 CLR
22:57 13.9 °F 9.3 °F 1024.9 in Calm     74 % 0.0 in 0.0 W/m2 CLR
23:02 13.9 °F 9.3 °F 1024.9 in Calm     74 % 0.0 in 0.0 W/m2 CLR
23:07 13.9 °F 9.6 °F 1024.9 in Calm     75 % 0.0 in 0.0 W/m2 CLR
23:12 13.3 °F 9.0 °F 1024.9 in Calm     75 % 0.0 in 0.0 W/m2 CLR
23:17 13.3 °F 9.2 °F 1024.9 in Calm     76 % 0.0 in 0.0 W/m2 CLR
23:22 13.3 °F 9.4 °F 1024.9 in Calm     77 % 0.0 in 0.0 W/m2 CLR
23:27 13.3 °F 9.4 °F 1025.3 in Calm     77 % 0.0 in 0.0 W/m2 CLR
23:32 13.3 °F 9.6 °F 1025.3 in Calm     78 % 0.0 in 0.0 W/m2 CLR
23:37 13.3 °F 9.8 °F 1025.3 in Calm     79 % 0.0 in 0.0 W/m2 CLR
23:42 13.3 °F 9.9 °F 1025.3 in Calm     80 % 0.0 in 0.0 W/m2 CLR
23:47 13.3 °F 9.9 °F 1024.9 in Calm     80 % 0.0 in 0.0 W/m2 CLR
23:52 13.3 °F 10.2 °F 1025.3 in Calm     81 % 0.0 in 0.0 W/m2 CLR
23:57 12.8 °F 9.6 °F 1024.9 in Calm     81 % 0.0 in 0.0 W/m2 CLR
Lo Temps de Massalio
Compliments of Weather Underground - 1.25 mb